createdAt,value
2017-06-21T00:00:25.715Z,78.94
2017-06-21T00:01:25.410Z,79.23
2017-06-21T00:02:25.713Z,79.23
2017-06-21T00:03:25.409Z,79.33
2017-06-21T00:04:25.714Z,79.33
2017-06-21T00:05:25.407Z,79.61
2017-06-21T00:06:25.716Z,79.61
2017-06-21T00:07:25.717Z,79.61
2017-06-21T00:08:25.712Z,79.61
2017-06-21T00:09:25.716Z,79.43
2017-06-21T00:10:25.718Z,79.33
2017-06-21T00:11:25.716Z,79.33
2017-06-21T00:12:25.718Z,79.71
2017-06-21T00:13:25.715Z,79.71
2017-06-21T00:14:25.713Z,79.33
2017-06-21T00:15:25.713Z,79.03
2017-06-21T00:16:25.713Z,79.03
2017-06-21T00:17:25.408Z,79.13
2017-06-21T00:18:25.714Z,78.94
2017-06-21T00:19:25.714Z,79.43
2017-06-21T00:20:25.714Z,79.03
2017-06-21T00:21:25.714Z,79.23
2017-06-21T00:22:25.717Z,79.03
2017-06-21T00:23:25.717Z,78.94
2017-06-21T00:24:25.713Z,79.03
2017-06-21T00:25:25.711Z,78.85
2017-06-21T00:26:25.714Z,79.13
2017-06-21T00:27:25.712Z,79.23
2017-06-21T00:28:25.714Z,79.13
2017-06-21T00:29:25.714Z,79.23
2017-06-21T00:30:25.713Z,79.1
2017-06-21T00:31:25.715Z,78.85
2017-06-21T00:32:25.711Z,78.9
2017-06-21T00:33:25.719Z,79.1
2017-06-21T00:34:25.709Z,79.19
2017-06-21T00:35:25.710Z,79.77
2017-06-21T00:36:25.712Z,79.58
2017-06-21T00:37:25.712Z,79.58
2017-06-21T00:38:25.713Z,79.67
2017-06-21T00:39:25.713Z,79.58
2017-06-21T00:40:25.710Z,79.77
2017-06-21T00:41:25.444Z,79.77
2017-06-21T00:42:25.403Z,79.67
2017-06-21T00:43:25.710Z,79.77
2017-06-21T00:44:25.708Z,80.06
2017-06-21T00:45:25.403Z,79.96
2017-06-21T00:46:25.709Z,80.11
2017-06-21T00:47:25.707Z,80.11
2017-06-21T00:48:25.709Z,80.02
2017-06-21T00:49:25.708Z,80.11
2017-06-21T00:50:25.711Z,79.67
2017-06-21T00:51:25.709Z,79.63
2017-06-21T00:52:25.705Z,79.77
2017-06-21T00:53:25.402Z,79.63
2017-06-21T00:54:25.704Z,79.92
2017-06-21T00:55:25.710Z,79.53
2017-06-21T00:56:25.706Z,79.53
2017-06-21T00:57:25.706Z,79.1
2017-06-21T00:58:25.707Z,79.25
2017-06-21T00:59:25.709Z,79.38
2017-06-21T01:00:25.403Z,79.28
2017-06-21T01:01:25.399Z,79.67
2017-06-21T01:02:25.704Z,79.48
2017-06-21T01:03:25.706Z,79.28
2017-06-21T01:04:25.706Z,79.38
2017-06-21T01:05:25.704Z,79.19
2017-06-21T01:06:25.703Z,79.38
2017-06-21T01:07:25.704Z,79.67
2017-06-21T01:08:25.704Z,79.58
2017-06-21T01:09:25.705Z,79.48
2017-06-21T01:10:25.706Z,79.58
2017-06-21T01:11:25.704Z,79.48
2017-06-21T01:12:25.706Z,79.58
2017-06-21T01:13:25.705Z,79.86
2017-06-21T01:14:25.703Z,79.86
2017-06-21T01:15:25.705Z,79.77
2017-06-21T01:16:25.396Z,79.77
2017-06-21T01:17:25.704Z,79.86
2017-06-21T01:18:25.396Z,79.67
2017-06-21T01:19:25.701Z,79.96
2017-06-21T01:20:25.702Z,80.06
2017-06-21T01:21:25.703Z,80.15
2017-06-21T01:22:25.705Z,80.15
2017-06-21T01:23:25.395Z,79.86
2017-06-21T01:24:25.701Z,80.35
2017-06-21T01:25:25.703Z,80.25
2017-06-21T01:26:25.394Z,80.02
2017-06-21T01:27:25.699Z,79.96
2017-06-21T01:28:25.700Z,80.11
2017-06-21T01:29:25.394Z,80.11
2017-06-21T01:30:25.702Z,79.92
2017-06-21T01:31:25.701Z,80.3
2017-06-21T01:32:25.700Z,80.11
2017-06-21T01:33:25.395Z,80.3
2017-06-21T01:34:25.695Z,80.21
2017-06-21T01:35:25.695Z,80.11
2017-06-21T01:36:25.698Z,80.11
2017-06-21T01:37:25.700Z,80.3
2017-06-21T01:38:25.391Z,79.73
2017-06-21T01:39:25.694Z,79.53
2017-06-21T01:40:25.697Z,79.92
2017-06-21T01:41:25.699Z,79.82
2017-06-21T01:42:25.696Z,80.3
2017-06-21T01:43:25.700Z,80.21
2017-06-21T01:44:25.696Z,80.02
2017-06-21T01:45:25.696Z,79.92
2017-06-21T01:46:25.696Z,80.11
2017-06-21T01:47:25.695Z,80.11
2017-06-21T01:48:25.693Z,80.11
2017-06-21T01:49:25.692Z,79.92
2017-06-21T01:50:25.693Z,80.4
2017-06-21T01:51:25.692Z,80.21
2017-06-21T01:52:25.690Z,80.3
2017-06-21T01:53:25.385Z,80.11
2017-06-21T01:54:25.692Z,80.4
2017-06-21T01:55:25.690Z,80.4
2017-06-21T01:56:25.693Z,80.6
2017-06-21T01:57:25.690Z,80.69
2017-06-21T01:58:25.693Z,80.69
2017-06-21T01:59:25.691Z,80.55
2017-06-21T02:00:25.696Z,80.46
2017-06-21T02:01:25.693Z,80.69
2017-06-21T02:02:25.385Z,80.98
2017-06-21T02:03:25.687Z,80.65
2017-06-21T02:04:25.381Z,80.46
2017-06-21T02:05:25.687Z,80.84
2017-06-21T02:06:25.380Z,81.13
2017-06-21T02:07:25.689Z,81.13
2017-06-21T02:08:25.686Z,81.71
2017-06-21T02:09:25.684Z,81.61
2017-06-21T02:10:25.380Z,81.61
2017-06-21T02:11:25.685Z,81.99
2017-06-21T02:12:25.689Z,81.71
2017-06-21T02:13:25.685Z,81.99
2017-06-21T02:14:25.689Z,81.81
2017-06-21T02:15:25.686Z,81.71
2017-06-21T02:16:25.686Z,82.29
2017-06-21T02:17:25.685Z,82.48
2017-06-21T02:18:25.683Z,82.76
2017-06-21T02:19:25.683Z,82.09
2017-06-21T02:20:25.684Z,82.96
2017-06-21T02:21:25.683Z,83.06
2017-06-21T02:22:25.374Z,82.76
2017-06-21T02:23:25.376Z,82.76
2017-06-21T02:24:25.682Z,82.67
2017-06-21T02:25:25.683Z,83.06
2017-06-21T02:26:25.679Z,82.63
2017-06-21T02:27:25.678Z,82.76
2017-06-21T02:28:25.681Z,83.01
2017-06-21T02:29:25.681Z,82.67
2017-06-21T02:30:25.679Z,82.86
2017-06-21T02:31:25.680Z,82.76
2017-06-21T02:32:25.679Z,82.67
2017-06-21T02:33:25.369Z,82.86
2017-06-21T02:34:25.674Z,82.67
2017-06-21T02:35:25.676Z,82.73
2017-06-21T02:36:25.372Z,82.82
2017-06-21T02:37:25.371Z,82.92
2017-06-21T02:38:25.370Z,82.73
2017-06-21T02:39:25.674Z,83.01
2017-06-21T02:40:25.676Z,82.82
2017-06-21T02:41:25.677Z,83.49
2017-06-21T02:42:25.369Z,83.11
2017-06-21T02:43:25.674Z,83.01
2017-06-21T02:44:25.672Z,82.76
2017-06-21T02:45:25.672Z,83.01
2017-06-21T02:46:25.679Z,83.11
2017-06-21T02:47:25.672Z,83.01
2017-06-21T02:48:25.673Z,83.25
2017-06-21T02:49:25.673Z,83.2
2017-06-21T02:50:25.670Z,82.73
2017-06-21T02:51:25.673Z,83.2
2017-06-21T02:52:25.672Z,82.82
2017-06-21T02:53:25.671Z,82.73
2017-06-21T02:54:25.672Z,82.53
2017-06-21T02:55:25.667Z,82.82
2017-06-21T02:56:25.668Z,82.73
2017-06-21T02:57:25.669Z,82.92
2017-06-21T02:58:25.668Z,82.92
2017-06-21T02:59:25.668Z,82.73
2017-06-21T03:00:25.668Z,82.73
2017-06-21T03:01:25.669Z,82.73
2017-06-21T03:02:25.666Z,82.73
2017-06-21T03:03:25.664Z,82.73
2017-06-21T03:04:25.664Z,82.92
2017-06-21T03:05:25.359Z,82.73
2017-06-21T03:06:25.664Z,82.92
2017-06-21T03:07:25.662Z,82.53
2017-06-21T03:08:25.663Z,82.92
2017-06-21T03:09:25.663Z,82.63
2017-06-21T03:10:25.662Z,82.63
2017-06-21T03:11:25.663Z,82.82
2017-06-21T03:12:25.699Z,82.63
2017-06-21T03:13:25.659Z,82.82
2017-06-21T03:14:25.659Z,82.82
2017-06-21T03:15:25.658Z,82.82
2017-06-21T03:16:25.658Z,82.73
2017-06-21T03:17:25.660Z,82.53
2017-06-21T03:18:25.664Z,82.76
2017-06-21T03:19:25.661Z,83.06
2017-06-21T03:20:25.658Z,83.25
2017-06-21T03:21:25.658Z,82.24
2017-06-21T03:22:25.660Z,82.43
2017-06-21T03:23:25.658Z,82.67
2017-06-21T03:24:25.656Z,82.53
2017-06-21T03:25:25.656Z,82.34
2017-06-21T03:26:25.348Z,82.15
2017-06-21T03:27:25.652Z,82.19
2017-06-21T03:28:25.650Z,82.34
2017-06-21T03:29:25.653Z,82.34
2017-06-21T03:30:25.653Z,82.53
2017-06-21T03:31:25.348Z,82.34
2017-06-21T03:32:25.350Z,82.53
2017-06-21T03:33:25.654Z,82.92
2017-06-21T03:34:25.651Z,83.01
2017-06-21T03:35:25.652Z,82.73
2017-06-21T03:36:25.648Z,82.73
2017-06-21T03:37:25.342Z,82.63
2017-06-21T03:38:25.646Z,83.01
2017-06-21T03:39:25.649Z,82.73
2017-06-21T03:40:25.645Z,82.73
2017-06-21T03:41:25.683Z,82.82
2017-06-21T03:42:25.645Z,82.73
2017-06-21T03:43:25.646Z,82.63
2017-06-21T03:44:25.338Z,82.63
2017-06-21T03:45:25.646Z,82.73
2017-06-21T03:46:25.643Z,82.73
2017-06-21T03:47:25.335Z,82.63
2017-06-21T03:48:25.645Z,82.73
2017-06-21T03:49:25.339Z,82.73
2017-06-21T03:50:25.645Z,82.76
2017-06-21T03:51:25.640Z,82.67
2017-06-21T03:52:25.338Z,82.38
2017-06-21T03:53:25.334Z,82.34
2017-06-21T03:54:25.638Z,82.19
2017-06-21T03:55:25.639Z,82.48
2017-06-21T03:56:25.640Z,82.38
2017-06-21T03:57:25.333Z,82.19
2017-06-21T03:58:25.640Z,81.9
2017-06-21T03:59:25.638Z,81.9
2017-06-21T04:00:25.640Z,82.14
2017-06-21T04:01:25.636Z,81.46
2017-06-21T04:02:25.331Z,81.75
2017-06-21T04:03:25.638Z,80.98
2017-06-21T04:04:25.633Z,81.07
2017-06-21T04:05:25.634Z,80.98
2017-06-21T04:06:25.636Z,81.07
2017-06-21T04:07:25.328Z,81.17
2017-06-21T04:08:25.635Z,80.69
2017-06-21T04:09:25.635Z,81.07
2017-06-21T04:10:25.329Z,80.6
2017-06-21T04:11:25.634Z,80.35
2017-06-21T04:12:25.632Z,80.35
2017-06-21T04:13:25.632Z,80.15
2017-06-21T04:14:25.632Z,80.25
2017-06-21T04:15:25.327Z,80.15
2017-06-21T04:16:25.631Z,80.06
2017-06-21T04:17:25.632Z,80.06
2017-06-21T04:18:25.631Z,79.9
2017-06-21T04:19:25.630Z,79.03
2017-06-21T04:20:25.633Z,78.21
2017-06-21T04:21:25.326Z,77.09
2017-06-21T04:22:25.632Z,76.45
2017-06-21T04:23:25.632Z,75.24
2017-06-21T04:24:25.630Z,73.83
2017-06-21T04:25:25.328Z,73.38
2017-06-21T04:26:25.631Z,72.32
2017-06-21T04:27:25.327Z,71.55
2017-06-21T04:28:25.631Z,71.2
2017-06-21T04:29:25.633Z,70.42
2017-06-21T04:30:25.632Z,69.84
2017-06-21T04:31:25.633Z,69.68
2017-06-21T04:32:25.631Z,69.01
2017-06-21T04:33:25.631Z,68.27
2017-06-21T04:34:25.631Z,67.98
2017-06-21T04:35:25.632Z,67.33
2017-06-21T04:36:25.630Z,66.63
2017-06-21T04:37:25.632Z,66.27
2017-06-21T04:38:25.326Z,66.08
2017-06-21T04:39:25.631Z,64.95
2017-06-21T04:40:25.633Z,64.27
2017-06-21T04:41:25.632Z,63.31
2017-06-21T04:42:25.633Z,62.95
2017-06-21T04:43:25.633Z,62.37
2017-06-21T04:44:25.329Z,61.98
2017-06-21T04:45:25.638Z,61.4
2017-06-21T04:46:25.639Z,61.14
2017-06-21T04:47:25.639Z,60.65
2017-06-21T04:48:25.643Z,60.17
2017-06-21T04:49:25.639Z,59.88
2017-06-21T04:50:25.639Z,59.13
2017-06-21T04:51:25.641Z,59.03
2017-06-21T04:52:25.641Z,58.55
2017-06-21T04:53:25.641Z,57.78
2017-06-21T04:54:25.642Z,57.7
2017-06-21T04:55:25.644Z,57.51
2017-06-21T04:56:25.644Z,57.22
2017-06-21T04:57:25.648Z,56.74
2017-06-21T04:58:25.647Z,56.25
2017-06-21T04:59:25.342Z,56.28
2017-06-21T05:00:25.343Z,55.31
2017-06-21T05:01:25.649Z,55.14
2017-06-21T05:02:25.650Z,54.46
2017-06-21T05:03:25.653Z,53.97
2017-06-21T05:04:25.652Z,53.22
2017-06-21T05:05:25.354Z,53.03
2017-06-21T05:06:25.656Z,52.67
2017-06-21T05:07:25.659Z,52.19
2017-06-21T05:08:25.355Z,51.7
2017-06-21T05:09:25.664Z,51.21
2017-06-21T05:10:25.663Z,50.85
2017-06-21T05:11:25.665Z,51.04
2017-06-21T05:12:25.362Z,50.58
2017-06-21T05:13:25.362Z,50.38
2017-06-21T05:14:25.671Z,49.9
2017-06-21T05:15:25.673Z,49.54
2017-06-21T05:16:25.373Z,48.85
2017-06-21T05:17:25.677Z,48.75
2017-06-21T05:18:25.679Z,48.95
2017-06-21T05:19:25.375Z,48.27
2017-06-21T05:20:25.682Z,48.29
2017-06-21T05:21:25.685Z,48
2017-06-21T05:22:25.688Z,48.49
2017-06-21T05:23:25.691Z,47.32
2017-06-21T05:24:25.692Z,46.76
2017-06-21T05:25:25.390Z,46.59
2017-06-21T05:26:25.696Z,46.49
2017-06-21T05:27:25.698Z,46.49
2017-06-21T05:28:25.701Z,45.64
2017-06-21T05:29:25.703Z,45.46
2017-06-21T05:30:25.707Z,45.36
2017-06-21T05:31:25.711Z,45.09
2017-06-21T05:32:25.712Z,44.7
2017-06-21T05:33:25.716Z,44.41
2017-06-21T05:34:25.719Z,44.41
2017-06-21T05:35:25.722Z,44.6
2017-06-21T05:36:25.724Z,44.24
2017-06-21T05:37:25.728Z,44.14
2017-06-21T05:38:25.732Z,44.43
2017-06-21T05:39:25.736Z,43.75
2017-06-21T05:40:25.737Z,43.48
2017-06-21T05:41:25.742Z,43.18
2017-06-21T05:42:25.743Z,43.18
2017-06-21T05:43:25.747Z,42.79
2017-06-21T05:44:25.447Z,42.42
2017-06-21T05:45:25.756Z,42.13
2017-06-21T05:46:25.760Z,41.83
2017-06-21T05:47:25.759Z,41.64
2017-06-21T05:48:25.767Z,41.93
2017-06-21T05:49:25.769Z,41.64
2017-06-21T05:50:25.773Z,41.64
2017-06-21T05:51:25.778Z,41.35
2017-06-21T05:52:25.781Z,41.17
2017-06-21T05:53:25.786Z,40.97
2017-06-21T05:54:25.788Z,40.7
2017-06-21T05:55:25.796Z,40.41
2017-06-21T05:56:25.493Z,40.23
2017-06-21T05:57:25.802Z,39.84
2017-06-21T05:58:25.804Z,39.76
2017-06-21T05:59:25.808Z,39.66
2017-06-21T06:00:25.812Z,39.96
2017-06-21T06:01:25.511Z,39.86
2017-06-21T06:02:25.821Z,39.96
2017-06-21T06:03:25.844Z,39.86
2017-06-21T06:04:25.830Z,39.86
2017-06-21T06:05:25.832Z,39.96
2017-06-21T06:06:25.843Z,39.86
2017-06-21T06:07:25.840Z,39.56
2017-06-21T06:08:25.846Z,38.8
2017-06-21T06:09:25.855Z,38.51
2017-06-21T06:10:25.854Z,38.72
2017-06-21T06:11:25.865Z,38.33
2017-06-21T06:12:25.866Z,38.06
2017-06-21T06:13:25.870Z,37.94
2017-06-21T06:14:25.874Z,37.96
2017-06-21T06:15:25.879Z,37.76
2017-06-21T06:16:25.881Z,37.76
2017-06-21T06:17:25.580Z,37.56
2017-06-21T06:18:25.892Z,37.48
2017-06-21T06:19:25.590Z,37.29
2017-06-21T06:20:25.903Z,37.38
2017-06-21T06:21:25.599Z,37.38
2017-06-21T06:22:25.912Z,37.09
2017-06-21T06:23:25.915Z,37.21
2017-06-21T06:24:25.918Z,36.72
2017-06-21T06:25:25.922Z,36.72
2017-06-21T06:26:25.930Z,36.15
2017-06-21T06:27:25.935Z,36.15
2017-06-21T06:28:25.935Z,36.05
2017-06-21T06:29:25.942Z,35.75
2017-06-21T06:30:25.950Z,35.47
2017-06-21T06:31:25.647Z,35.38
2017-06-21T06:32:25.651Z,34.99
2017-06-21T06:33:25.655Z,35.08
2017-06-21T06:34:25.965Z,35.08
2017-06-21T06:35:25.971Z,34.69
2017-06-21T06:36:25.974Z,34.78
2017-06-21T06:37:25.978Z,34.59
2017-06-21T06:38:25.983Z,34.59
2017-06-21T06:39:25.987Z,34.39
2017-06-21T06:40:25.991Z,33.92
2017-06-21T06:41:25.996Z,33.82
2017-06-21T06:42:26.001Z,33.54
2017-06-21T06:43:26.005Z,33.54
2017-06-21T06:44:26.009Z,33.44
2017-06-21T06:45:26.012Z,33.64
2017-06-21T06:46:25.714Z,33.54
2017-06-21T06:47:26.022Z,33.46
2017-06-21T06:48:26.024Z,33.26
2017-06-21T06:49:25.723Z,33.46
2017-06-21T06:50:25.734Z,32.98
2017-06-21T06:51:25.735Z,32.98
2017-06-21T06:52:26.045Z,33.1
2017-06-21T06:53:26.051Z,32.31
2017-06-21T06:54:25.744Z,32.41
2017-06-21T06:55:26.058Z,31.73
2017-06-21T06:56:26.062Z,31.24
2017-06-21T06:57:26.062Z,31.24
2017-06-21T06:58:26.065Z,31.26
2017-06-21T06:59:26.110Z,31.16
2017-06-21T07:00:26.075Z,31.06
2017-06-21T07:01:26.079Z,30.76
2017-06-21T07:02:26.088Z,30.38
2017-06-21T07:03:26.085Z,30.19
2017-06-21T07:04:26.087Z,30.4
2017-06-21T07:05:26.092Z,30.38
2017-06-21T07:06:26.097Z,30.4
2017-06-21T07:07:26.099Z,30.4
2017-06-21T07:08:26.108Z,30.19
2017-06-21T07:09:26.106Z,29.91
2017-06-21T07:10:26.111Z,29.8
2017-06-21T07:11:26.148Z,29.52
2017-06-21T07:12:26.118Z,29.03
2017-06-21T07:13:26.121Z,29.05
2017-06-21T07:14:26.122Z,28.85
2017-06-21T07:15:26.129Z,28.96
2017-06-21T07:16:25.829Z,28.76
2017-06-21T07:17:26.138Z,28.37
2017-06-21T07:18:26.136Z,28.86
2017-06-21T07:19:25.836Z,28.96
2017-06-21T07:20:26.144Z,28.76
2017-06-21T07:21:25.844Z,28.47
2017-06-21T07:22:25.845Z,28.38
2017-06-21T07:23:25.849Z,27.98
2017-06-21T07:24:26.159Z,27.98
2017-06-21T07:25:26.159Z,28.08
2017-06-21T07:26:26.165Z,28.2
2017-06-21T07:27:26.162Z,28
2017-06-21T07:28:26.171Z,27.7
2017-06-21T07:29:26.168Z,27.31
2017-06-21T07:30:26.180Z,26.81
2017-06-21T07:31:26.178Z,26.73
2017-06-21T07:32:26.179Z,26.62
2017-06-21T07:33:26.184Z,26.53
2017-06-21T07:34:26.184Z,26.62
2017-06-21T07:35:26.191Z,26.03
2017-06-21T07:36:25.884Z,26.21
2017-06-21T07:37:26.197Z,26.21
2017-06-21T07:38:26.198Z,25.82
2017-06-21T07:39:26.210Z,25.63
2017-06-21T07:40:26.202Z,25.44
2017-06-21T07:41:25.902Z,25.54
2017-06-21T07:42:26.210Z,25.25
2017-06-21T07:43:26.210Z,25.05
2017-06-21T07:44:26.215Z,24.77
2017-06-21T07:45:26.220Z,24.77
2017-06-21T07:46:26.222Z,24.37
2017-06-21T07:47:26.232Z,24.19
2017-06-21T07:48:26.224Z,23.89
2017-06-21T07:49:26.231Z,23.59
2017-06-21T07:50:26.235Z,23.19
2017-06-21T07:51:26.234Z,22.8
2017-06-21T07:52:26.241Z,22.6
2017-06-21T07:53:25.937Z,22.5
2017-06-21T07:54:26.247Z,22.61
2017-06-21T07:55:25.939Z,22.51
2017-06-21T07:56:26.249Z,22.61
2017-06-21T07:57:26.253Z,22.91
2017-06-21T07:58:26.252Z,22.51
2017-06-21T07:59:25.950Z,22.8
2017-06-21T08:00:26.262Z,22.89
2017-06-21T08:01:25.955Z,22.71
2017-06-21T08:02:25.962Z,22.91
2017-06-21T08:03:26.268Z,22.91
2017-06-21T08:04:25.965Z,22.71
2017-06-21T08:05:26.276Z,22.52
2017-06-21T08:06:26.279Z,22.82
2017-06-21T08:07:26.282Z,22.63
2017-06-21T08:08:26.281Z,22.03
2017-06-21T08:09:25.982Z,22.24
2017-06-21T08:10:26.289Z,21.34
2017-06-21T08:11:26.291Z,21.44
2017-06-21T08:12:26.295Z,21.74
2017-06-21T08:13:26.300Z,21.85
2017-06-21T08:14:26.301Z,21.35
2017-06-21T08:15:26.316Z,21.24
2017-06-21T08:16:26.304Z,20.86
2017-06-21T08:17:26.306Z,20.86
2017-06-21T08:18:26.001Z,20.07
2017-06-21T08:19:26.313Z,20.28
2017-06-21T08:20:26.317Z,19.98
2017-06-21T08:21:26.315Z,19.58
2017-06-21T08:22:26.324Z,19.39
2017-06-21T08:23:26.319Z,18.99
2017-06-21T08:24:26.325Z,19.2
2017-06-21T08:25:26.327Z,18.99
2017-06-21T08:26:26.328Z,18.6
2017-06-21T08:27:26.332Z,19.1
2017-06-21T08:28:26.333Z,18.99
2017-06-21T08:29:26.338Z,19.29
2017-06-21T08:30:26.034Z,19.2
2017-06-21T08:31:26.339Z,18.8
2017-06-21T08:32:26.050Z,18.6
2017-06-21T08:33:26.345Z,18.6
2017-06-21T08:34:26.347Z,18.6
2017-06-21T08:35:26.350Z,18.4
2017-06-21T08:36:26.353Z,18
2017-06-21T08:37:26.355Z,18
2017-06-21T08:38:26.360Z,18
2017-06-21T08:39:26.360Z,17.91
2017-06-21T08:40:26.362Z,17.5
2017-06-21T08:41:26.394Z,17.81
2017-06-21T08:42:26.367Z,17.61
2017-06-21T08:43:26.371Z,17.8
2017-06-21T08:44:26.373Z,18.29
2017-06-21T08:45:26.066Z,18.28
2017-06-21T08:46:26.378Z,18.28
2017-06-21T08:47:26.377Z,18.09
2017-06-21T08:48:26.380Z,17.6
2017-06-21T08:49:26.383Z,17.6
2017-06-21T08:50:26.386Z,17.5
2017-06-21T08:51:26.390Z,17.5
2017-06-21T08:52:26.390Z,17.79
2017-06-21T08:53:26.390Z,17.69
2017-06-21T08:54:26.087Z,18.38
2017-06-21T08:55:26.399Z,19.06
2017-06-21T08:56:26.398Z,19.94
2017-06-21T08:57:26.399Z,20.72
2017-06-21T08:58:26.404Z,21.88
2017-06-21T08:59:26.407Z,22.56
2017-06-21T09:00:26.408Z,23.13
2017-06-21T09:01:26.102Z,24.1
2017-06-21T09:02:26.410Z,24.67
2017-06-21T09:03:26.412Z,25.15
2017-06-21T09:04:26.109Z,25.93
2017-06-21T09:05:26.419Z,26.81
2017-06-21T09:06:26.115Z,27.27
2017-06-21T09:07:26.422Z,27.67
2017-06-21T09:08:26.422Z,27.95
2017-06-21T09:09:26.425Z,28.13
2017-06-21T09:10:26.428Z,28.42
2017-06-21T09:11:26.427Z,28.81
2017-06-21T09:12:26.435Z,29.39
2017-06-21T09:13:26.434Z,29.58
2017-06-21T09:14:26.126Z,29.97
2017-06-21T09:15:26.437Z,30.07
2017-06-21T09:16:26.132Z,30.36
2017-06-21T09:17:26.442Z,30.36
2017-06-21T09:18:26.439Z,30.56
2017-06-21T09:19:26.445Z,30.84
2017-06-21T09:20:26.449Z,30.84
2017-06-21T09:21:26.455Z,31.13
2017-06-21T09:22:26.450Z,31.43
2017-06-21T09:23:26.456Z,31.43
2017-06-21T09:24:26.454Z,32.02
2017-06-21T09:25:26.456Z,32.2
2017-06-21T09:26:26.458Z,32.2
2017-06-21T09:27:26.457Z,32.38
2017-06-21T09:28:26.461Z,32.87
2017-06-21T09:29:26.460Z,32.97
2017-06-21T09:30:26.463Z,33.26
2017-06-21T09:31:26.469Z,33.56
2017-06-21T09:32:26.164Z,33.36
2017-06-21T09:33:26.467Z,33.36
2017-06-21T09:34:26.169Z,33.36
2017-06-21T09:35:26.474Z,33.26
2017-06-21T09:36:26.477Z,33.54
2017-06-21T09:37:26.475Z,33.74
2017-06-21T09:38:26.477Z,34.42
2017-06-21T09:39:26.480Z,34.8
2017-06-21T09:40:26.481Z,35.66
2017-06-21T09:41:26.484Z,36.14
2017-06-21T09:42:26.486Z,36.14
2017-06-21T09:43:26.485Z,36.63
2017-06-21T09:44:26.486Z,36.14
2017-06-21T09:45:26.489Z,36.25
2017-06-21T09:46:26.492Z,36.33
2017-06-21T09:47:26.490Z,36.04
2017-06-21T09:48:26.186Z,36.04
2017-06-21T09:49:26.494Z,36.63
2017-06-21T09:50:26.194Z,37.31
2017-06-21T09:51:26.498Z,37.61
2017-06-21T09:52:26.197Z,38
2017-06-21T09:53:26.200Z,37.79
2017-06-21T09:54:26.505Z,38.06
2017-06-21T09:55:26.502Z,38.84
2017-06-21T09:56:26.507Z,38.26
2017-06-21T09:57:26.203Z,38.16
2017-06-21T09:58:26.203Z,37.67
2017-06-21T09:59:26.509Z,37.88
2017-06-21T10:00:26.512Z,37.69
2017-06-21T10:01:26.514Z,37.59
2017-06-21T10:02:26.210Z,37.79
2017-06-21T10:03:26.211Z,38.08
2017-06-21T10:04:26.212Z,37.98
2017-06-21T10:05:26.522Z,37.98
2017-06-21T10:06:26.215Z,37.69
2017-06-21T10:07:26.215Z,38.28
2017-06-21T10:08:26.528Z,38
2017-06-21T10:09:26.529Z,38.2
2017-06-21T10:10:26.529Z,38.1
2017-06-21T10:11:26.224Z,38.2
2017-06-21T10:12:26.532Z,38.76
2017-06-21T10:13:26.531Z,38.47
2017-06-21T10:14:26.534Z,38.67
2017-06-21T10:15:26.231Z,38.57
2017-06-21T10:16:26.538Z,39.06
2017-06-21T10:17:26.539Z,38.47
2017-06-21T10:18:26.541Z,38.57
2017-06-21T10:19:26.543Z,37.81
2017-06-21T10:20:26.236Z,37.59
2017-06-21T10:21:26.543Z,37.39
2017-06-21T10:22:26.241Z,37.69
2017-06-21T10:23:26.550Z,38.1
2017-06-21T10:24:26.242Z,37.69
2017-06-21T10:25:26.552Z,37.81
2017-06-21T10:26:26.275Z,38.29
2017-06-21T10:27:26.553Z,38.2
2017-06-21T10:28:26.556Z,37.41
2017-06-21T10:29:26.556Z,37.81
2017-06-21T10:30:26.555Z,37.81
2017-06-21T10:31:26.253Z,37.41
2017-06-21T10:32:26.256Z,38.1
2017-06-21T10:33:26.562Z,37.9
2017-06-21T10:34:26.255Z,37.9
2017-06-21T10:35:26.259Z,37.71
2017-06-21T10:36:26.258Z,38
2017-06-21T10:37:26.262Z,37.71
2017-06-21T10:38:26.573Z,37.51
2017-06-21T10:39:26.572Z,37.9
2017-06-21T10:40:26.574Z,37.63
2017-06-21T10:41:26.574Z,37.81
2017-06-21T10:42:26.575Z,37.61
2017-06-21T10:43:26.270Z,38.1
2017-06-21T10:44:26.276Z,37.71
2017-06-21T10:45:26.618Z,37.81
2017-06-21T10:46:26.581Z,37.51
2017-06-21T10:47:26.582Z,37.71
2017-06-21T10:48:26.278Z,37.43
2017-06-21T10:49:26.585Z,37.82
2017-06-21T10:50:26.280Z,38.31
2017-06-21T10:51:26.589Z,38.68
2017-06-21T10:52:26.590Z,38.2
2017-06-21T10:53:26.322Z,38
2017-06-21T10:54:26.595Z,37.71
2017-06-21T10:55:26.594Z,37.51
2017-06-21T10:56:26.290Z,37.61
2017-06-21T10:57:26.291Z,37.51
2017-06-21T10:58:26.597Z,37.71
2017-06-21T10:59:26.598Z,37.61
2017-06-21T11:00:26.601Z,37.9
2017-06-21T11:01:26.295Z,38.39
2017-06-21T11:02:26.601Z,38.1
2017-06-21T11:03:26.603Z,37.41
2017-06-21T11:04:26.603Z,38.2
2017-06-21T11:05:26.301Z,37.21
2017-06-21T11:06:26.609Z,37.21
2017-06-21T11:07:26.607Z,37.12
2017-06-21T11:08:26.610Z,36.92
2017-06-21T11:09:26.614Z,37.21
2017-06-21T11:10:26.613Z,36.92
2017-06-21T11:11:26.309Z,36.72
2017-06-21T11:12:26.616Z,36.82
2017-06-21T11:13:26.615Z,36.63
2017-06-21T11:14:26.619Z,36.16
2017-06-21T11:15:26.622Z,36.55
2017-06-21T11:16:26.314Z,36.06
2017-06-21T11:17:26.641Z,36.16
2017-06-21T11:18:26.624Z,35.96
2017-06-21T11:19:26.657Z,35.25
2017-06-21T11:20:26.626Z,34.96
2017-06-21T11:21:26.325Z,34.96
2017-06-21T11:22:26.629Z,34.67
2017-06-21T11:23:26.324Z,34.38
2017-06-21T11:24:26.634Z,34.57
2017-06-21T11:25:26.634Z,34.47
2017-06-21T11:26:26.326Z,34.38
2017-06-21T11:27:26.329Z,34.47
2017-06-21T11:28:26.334Z,34.38
2017-06-21T11:29:26.638Z,34.28
2017-06-21T11:30:26.638Z,34.47
2017-06-21T11:31:26.643Z,33.79
2017-06-21T11:32:26.641Z,33.58
2017-06-21T11:33:26.337Z,33.58
2017-06-21T11:34:26.646Z,33.38
2017-06-21T11:35:26.341Z,33.87
2017-06-21T11:36:26.649Z,34.06
2017-06-21T11:37:26.650Z,34.45
2017-06-21T11:38:26.650Z,34.34
2017-06-21T11:39:26.652Z,34.44
2017-06-21T11:40:26.651Z,34.34
2017-06-21T11:41:26.367Z,34.54
2017-06-21T11:42:26.654Z,35.03
2017-06-21T11:43:26.350Z,35.32
2017-06-21T11:44:26.348Z,35.24
2017-06-21T11:45:26.351Z,34.94
2017-06-21T11:46:26.658Z,33.28
2017-06-21T11:47:26.354Z,32.22
2017-06-21T11:48:26.663Z,31.24
2017-06-21T11:49:26.358Z,29.87
2017-06-21T11:50:26.663Z,27.81
2017-06-21T11:51:26.362Z,28.01
2017-06-21T11:52:26.667Z,27.81
2017-06-21T11:53:26.361Z,28.01
2017-06-21T11:54:26.667Z,27.72
2017-06-21T11:55:26.365Z,27.52
2017-06-21T11:56:26.673Z,27.03
2017-06-21T11:57:26.675Z,27.33
2017-06-21T11:58:26.369Z,27.42
2017-06-21T11:59:26.677Z,27.52
2017-06-21T12:00:26.678Z,27.61
2017-06-21T12:01:26.681Z,27.62
2017-06-21T12:02:26.680Z,27.72
2017-06-21T12:03:26.676Z,27.62
2017-06-21T12:04:26.373Z,27.42
2017-06-21T12:05:26.687Z,27.52
2017-06-21T12:06:26.377Z,27.42
2017-06-21T12:07:26.379Z,27.23
2017-06-21T12:08:26.380Z,26.15
2017-06-21T12:09:26.381Z,25.46
2017-06-21T12:10:26.383Z,25.76
2017-06-21T12:11:26.693Z,26.05
2017-06-21T12:12:26.386Z,25.46
2017-06-21T12:13:26.393Z,25.37
2017-06-21T12:14:26.390Z,25.17
2017-06-21T12:15:26.697Z,25.27
2017-06-21T12:16:26.393Z,25.37
2017-06-21T12:17:26.391Z,26.05
2017-06-21T12:18:26.394Z,26.34
2017-06-21T12:19:26.395Z,26.54
2017-06-21T12:20:26.401Z,26.64
2017-06-21T12:21:26.700Z,26.64
2017-06-21T12:22:26.395Z,26.73
2017-06-21T12:23:26.708Z,26.15
2017-06-21T12:24:26.706Z,26.25
2017-06-21T12:25:26.707Z,26.25
2017-06-21T12:26:26.711Z,26.15
2017-06-21T12:27:26.710Z,26.64
2017-06-21T12:28:26.711Z,27.42
2017-06-21T12:29:26.714Z,27.52
2017-06-21T12:30:26.408Z,28.59
2017-06-21T12:31:26.411Z,29.08
2017-06-21T12:32:26.409Z,28.79
2017-06-21T12:33:26.412Z,29.48
2017-06-21T12:34:26.410Z,29.87
2017-06-21T12:35:26.715Z,29.77
2017-06-21T12:36:26.718Z,29.77
2017-06-21T12:37:26.721Z,29.08
2017-06-21T12:38:26.723Z,28.88
2017-06-21T12:39:26.416Z,28.97
2017-06-21T12:40:26.729Z,28.49
2017-06-21T12:41:26.726Z,28.19
2017-06-21T12:42:26.732Z,28.29
2017-06-21T12:43:26.623Z,28.58
2017-06-21T12:44:26.730Z,28.67
2017-06-21T12:45:26.734Z,27.88
2017-06-21T12:46:26.732Z,27.7
2017-06-21T12:47:26.427Z,27.9
2017-06-21T12:48:26.734Z,27.78
2017-06-21T12:49:26.735Z,27.8
2017-06-21T12:50:26.431Z,28
2017-06-21T12:51:26.739Z,27.78
2017-06-21T12:52:26.738Z,27.2
2017-06-21T12:53:26.741Z,27.98
2017-06-21T12:54:26.764Z,27.78
2017-06-21T12:55:26.742Z,27.78
2017-06-21T12:56:26.745Z,28.18